Terminal Aerodrome Forecast
Issued by NWS

Home | Current Version | Previous Version | Text Only | Print | Product List | Glossary On
Versions: 1 2 3 4 5 6 7 8 9 10 11 12 13 14 15 16 17
000
FTUS43 KGRB 242300
TAFCWA
TAF
KCWA 242320Z 2500/2524 11012KT 5SM -RA BR SCT007 OVC014
      TEMPO 2500/2504 1SM -RA BR BKN007
     FM250400 12006KT 4SM -RA BR SCT005 OVC012
      TEMPO 2504/2506 1SM -RA BR BKN005
     FM250600 VRB03KT 1 1/2SM BR BKN005 OVC012
     FM250900 28006KT P6SM BKN018 BKN035
     FM251600 26015G26KT P6SM SCT025 BKN040 PROB30 2516/2522 -SHRA
      BKN025
     FM252200 30018G27KT P6SM BKN030 BKN050
      AMD LTD TO CLD VIS AND WIND 2503/2511=

USA.gov is the U.S. government's official web portal to all federal, state and local government web resources and services.